sensor_id;sensor_type;location;lat;lon;timestamp;pressure;altitude;pressure_sealevel;temperature;humidity
11190;BME280;5651;50.926;4.718;2022-12-05T00:01:28;101566.28;;;2.56;100.00
11190;BME280;5651;50.926;4.718;2022-12-05T00:03:58;101565.38;;;2.56;100.00
11190;BME280;5651;50.926;4.718;2022-12-05T00:06:25;101569.72;;;2.57;100.00
11190;BME280;5651;50.926;4.718;2022-12-05T00:08:51;101569.72;;;2.57;100.00
11190;BME280;5651;50.926;4.718;2022-12-05T00:11:21;101571.47;;;2.58;100.00
11190;BME280;5651;50.926;4.718;2022-12-05T00:13:47;101568.94;;;2.59;100.00
11190;BME280;5651;50.926;4.718;2022-12-05T00:16:16;101562.81;;;2.56;100.00
11190;BME280;5651;50.926;4.718;2022-12-05T00:18:42;101560.38;;;2.59;100.00
11190;BME280;5651;50.926;4.718;2022-12-05T00:21:14;101568.91;;;2.58;100.00
11190;BME280;5651;50.926;4.718;2022-12-05T00:23:41;101561.28;;;2.61;100.00
11190;BME280;5651;50.926;4.718;2022-12-05T00:26:08;101562.19;;;2.61;100.00
11190;BME280;5651;50.926;4.718;2022-12-05T00:28:34;101557.03;;;2.61;100.00
11190;BME280;5651;50.926;4.718;2022-12-05T00:31:05;101566.28;;;2.56;100.00
11190;BME280;5651;50.926;4.718;2022-12-05T00:33:32;101575.81;;;2.59;100.00
11190;BME280;5651;50.926;4.718;2022-12-05T00:36:09;101568.13;;;2.60;100.00
11190;BME280;5651;50.926;4.718;2022-12-05T00:38:36;101573.22;;;2.59;100.00
11190;BME280;5651;50.926;4.718;2022-12-05T00:41:10;101569.91;;;2.61;100.00
11190;BME280;5651;50.926;4.718;2022-12-05T00:43:36;101568.09;;;2.59;100.00
11190;BME280;5651;50.926;4.718;2022-12-05T00:46:04;101567.19;;;2.58;100.00
11190;BME280;5651;50.926;4.718;2022-12-05T00:48:31;101575.81;;;2.59;100.00
11190;BME280;5651;50.926;4.718;2022-12-05T00:51:23;101573.09;;;2.56;100.00
11190;BME280;5651;50.926;4.718;2022-12-05T00:53:49;101578.28;;;2.57;100.00
11190;BME280;5651;50.926;4.718;2022-12-05T00:56:20;101574.81;;;2.55;100.00
11190;BME280;5651;50.926;4.718;2022-12-05T00:58:46;101579.13;;;2.56;100.00
11190;BME280;5651;50.926;4.718;2022-12-05T01:01:14;101574.84;;;2.57;100.00
11190;BME280;5651;50.926;4.718;2022-12-05T01:03:41;101578.44;;;2.60;100.00
11190;BME280;5651;50.926;4.718;2022-12-05T01:06:08;101579.28;;;2.61;100.00
11190;BME280;5651;50.926;4.718;2022-12-05T01:08:35;101571.53;;;2.59;100.00
11190;BME280;5651;50.926;4.718;2022-12-05T01:11:02;101585.38;;;2.63;100.00
11190;BME280;5651;50.926;4.718;2022-12-05T01:13:29;101580.25;;;2.63;100.00
11190;BME280;5651;50.926;4.718;2022-12-05T01:15:55;101584.56;;;2.64;100.00
11190;BME280;5651;50.926;4.718;2022-12-05T01:18:22;101588.94;;;2.66;100.00
11190;BME280;5651;50.926;4.718;2022-12-05T01:20:48;101594.19;;;2.68;100.00
11190;BME280;5651;50.926;4.718;2022-12-05T01:23:15;101586.38;;;2.66;100.00
11190;BME280;5651;50.926;4.718;2022-12-05T01:25:43;101579.66;;;2.70;100.00
11190;BME280;5651;50.926;4.718;2022-12-05T01:28:09;101589.09;;;2.69;100.00
11190;BME280;5651;50.926;4.718;2022-12-05T01:30:43;101593.44;;;2.71;100.00
11190;BME280;5651;50.926;4.718;2022-12-05T01:33:10;101587.47;;;2.72;100.00
11190;BME280;5651;50.926;4.718;2022-12-05T01:35:37;101598.63;;;2.72;100.00
11190;BME280;5651;50.926;4.718;2022-12-05T01:38:04;101605.41;;;2.70;100.00
11190;BME280;5651;50.926;4.718;2022-12-05T01:40:30;101597.75;;;2.72;100.00
11190;BME280;5651;50.926;4.718;2022-12-05T01:42:55;101597.00;;;2.74;100.00
11190;BME280;5651;50.926;4.718;2022-12-05T01:45:31;101607.34;;;2.76;100.00
11190;BME280;5651;50.926;4.718;2022-12-05T01:47:59;101608.28;;;2.78;100.00
11190;BME280;5651;50.926;4.718;2022-12-05T01:50:26;101600.63;;;2.79;100.00
11190;BME280;5651;50.926;4.718;2022-12-05T01:52:52;101607.47;;;2.79;100.00
11190;BME280;5651;50.926;4.718;2022-12-05T01:55:18;101606.56;;;2.78;100.00
11190;BME280;5651;50.926;4.718;2022-12-05T01:57:46;101600.63;;;2.79;100.00
11190;BME280;5651;50.926;4.718;2022-12-05T02:00:16;101604.94;;;2.80;100.00
11190;BME280;5651;50.926;4.718;2022-12-05T02:03:06;101605.75;;;2.79;100.00
11190;BME280;5651;50.926;4.718;2022-12-05T02:05:33;101607.53;;;2.80;100.00
11190;BME280;5651;50.926;4.718;2022-12-05T02:08:02;101599.66;;;2.77;100.00
11190;BME280;5651;50.926;4.718;2022-12-05T02:10:34;101604.00;;;2.78;100.00
11190;BME280;5651;50.926;4.718;2022-12-05T02:13:15;101605.81;;;2.81;100.00
11190;BME280;5651;50.926;4.718;2022-12-05T02:15:49;101608.38;;;2.81;100.00
11190;BME280;5651;50.926;4.718;2022-12-05T02:18:36;101611.78;;;2.80;100.00
11190;BME280;5651;50.926;4.718;2022-12-05T02:32:23;101603.19;;;2.79;100.00
11190;BME280;5651;50.926;4.718;2022-12-05T02:34:59;101607.63;;;2.83;100.00
11190;BME280;5651;50.926;4.718;2022-12-05T02:37:33;101605.81;;;2.81;100.00
11190;BME280;5651;50.926;4.718;2022-12-05T02:40:23;101603.25;;;2.81;100.00
11190;BME280;5651;50.926;4.718;2022-12-05T02:45:40;101603.31;;;2.82;100.00
11190;BME280;5651;50.926;4.718;2022-12-05T02:48:08;101597.19;;;2.79;100.00
11190;BME280;5651;50.926;4.718;2022-12-05T02:50:37;101594.47;;;2.76;100.00
11190;BME280;5651;50.926;4.718;2022-12-05T02:53:08;101595.34;;;2.76;100.00
11190;BME280;5651;50.926;4.718;2022-12-05T02:55:35;101590.91;;;2.72;100.00
11190;BME280;5651;50.926;4.718;2022-12-05T02:58:06;101589.19;;;2.73;100.00
11190;BME280;5651;50.926;4.718;2022-12-05T03:00:34;101589.19;;;2.73;100.00
11190;BME280;5651;50.926;4.718;2022-12-05T03:03:00;101590.94;;;2.74;100.00
11190;BME280;5651;50.926;4.718;2022-12-05T03:05:54;101591.03;;;2.75;100.00
11190;BME280;5651;50.926;4.718;2022-12-05T03:08:24;101597.84;;;2.75;100.00
11190;BME280;5651;50.926;4.718;2022-12-05T03:10:52;101597.03;;;2.76;100.00
11190;BME280;5651;50.926;4.718;2022-12-05T03:13:23;101599.56;;;2.74;100.00
11190;BME280;5651;50.926;4.718;2022-12-05T03:15:55;101597.84;;;2.75;100.00
11190;BME280;5651;50.926;4.718;2022-12-05T03:18:28;101598.00;;;2.78;100.00
11190;BME280;5651;50.926;4.718;2022-12-05T03:23:29;101596.28;;;2.78;100.00
11190;BME280;5651;50.926;4.718;2022-12-05T03:26:15;101597.00;;;2.74;100.00
11190;BME280;5651;50.926;4.718;2022-12-05T03:31:37;101588.31;;;2.72;100.00
11190;BME280;5651;50.926;4.718;2022-12-05T03:34:06;101589.28;;;2.74;100.00
11190;BME280;5651;50.926;4.718;2022-12-05T03:36:38;101588.31;;;2.72;100.00
11190;BME280;5651;50.926;4.718;2022-12-05T03:39:12;101589.03;;;2.68;100.00
11190;BME280;5651;50.926;4.718;2022-12-05T03:44:51;101600.00;;;2.64;100.00
11190;BME280;5651;50.926;4.718;2022-12-05T03:47:20;101598.25;;;2.63;100.00
11190;BME280;5651;50.926;4.718;2022-12-05T03:49:53;101605.16;;;2.64;100.00
11190;BME280;5651;50.926;4.718;2022-12-05T03:52:27;101601.63;;;2.62;100.00
11190;BME280;5651;50.926;4.718;2022-12-05T03:55:03;101609.34;;;2.62;100.00
11190;BME280;5651;50.926;4.718;2022-12-05T04:00:15;101609.28;;;2.60;100.00
11190;BME280;5651;50.926;4.718;2022-12-05T04:03:20;101607.47;;;2.58;100.00
11190;BME280;5651;50.926;4.718;2022-12-05T04:05:51;101610.91;;;2.58;100.00
11190;BME280;5651;50.926;4.718;2022-12-05T04:08:26;101615.19;;;2.58;100.00
11190;BME280;5651;50.926;4.718;2022-12-05T04:10:57;101605.88;;;2.60;100.00
11190;BME280;5651;50.926;4.718;2022-12-05T04:13:31;101611.81;;;2.59;100.00
11190;BME280;5651;50.926;4.718;2022-12-05T04:16:03;101611.06;;;2.61;100.00
11190;BME280;5651;50.926;4.718;2022-12-05T04:18:57;101616.16;;;2.60;100.00
11190;BME280;5651;50.926;4.718;2022-12-05T04:21:28;101611.88;;;2.60;100.00
11190;BME280;5651;50.926;4.718;2022-12-05T04:24:07;101612.63;;;2.58;100.00
11190;BME280;5651;50.926;4.718;2022-12-05T04:27:33;101605.00;;;2.61;100.00
11190;BME280;5651;50.926;4.718;2022-12-05T04:30:02;101611.91;;;2.62;100.00
11190;BME280;5651;50.926;4.718;2022-12-05T04:35:19;101619.63;;;2.62;100.00
11190;BME280;5651;50.926;4.718;2022-12-05T04:37:50;101614.44;;;2.60;100.00
11190;BME280;5651;50.926;4.718;2022-12-05T04:40:43;101614.44;;;2.60;100.00
11190;BME280;5651;50.926;4.718;2022-12-05T04:43:06;101617.97;;;2.62;100.00
11190;BME280;5651;50.926;4.718;2022-12-05T04:45:34;101619.59;;;2.60;100.00
11190;BME280;5651;50.926;4.718;2022-12-05T04:48:07;101624.78;;;2.62;100.00
11190;BME280;5651;50.926;4.718;2022-12-05T04:50:36;101624.88;;;2.63;100.00
11190;BME280;5651;50.926;4.718;2022-12-05T04:53:05;101626.53;;;2.63;100.00
11190;BME280;5651;50.926;4.718;2022-12-05T04:55:32;101625.88;;;2.67;100.00
11190;BME280;5651;50.926;4.718;2022-12-05T04:58:10;101625.78;;;2.65;100.00
11190;BME280;5651;50.926;4.718;2022-12-05T05:00:45;101637.78;;;2.65;100.00
11190;BME280;5651;50.926;4.718;2022-12-05T05:03:24;101635.22;;;2.65;100.00
11190;BME280;5651;50.926;4.718;2022-12-05T05:05:54;101633.50;;;2.65;100.00
11190;BME280;5651;50.926;4.718;2022-12-05T05:08:23;101636.22;;;2.68;100.00
11190;BME280;5651;50.926;4.718;2022-12-05T05:10:56;101634.47;;;2.67;100.00
11190;BME280;5651;50.926;4.718;2022-12-05T05:13:25;101638.78;;;2.68;100.00
11190;BME280;5651;50.926;4.718;2022-12-05T05:15:51;101637.03;;;2.67;100.00
11190;BME280;5651;50.926;4.718;2022-12-05T05:18:17;101647.31;;;2.67;100.00
11190;BME280;5651;50.926;4.718;2022-12-05T05:20:42;101648.22;;;2.68;100.00
11190;BME280;5651;50.926;4.718;2022-12-05T05:23:08;101646.47;;;2.67;100.00
11190;BME280;5651;50.926;4.718;2022-12-05T05:25:34;101646.50;;;2.68;100.00
11190;BME280;5651;50.926;4.718;2022-12-05T05:27:59;101643.94;;;2.68;100.00
11190;BME280;5651;50.926;4.718;2022-12-05T05:30:25;101648.28;;;2.69;100.00
11190;BME280;5651;50.926;4.718;2022-12-05T05:32:51;101653.41;;;2.69;100.00
11190;BME280;5651;50.926;4.718;2022-12-05T05:35:18;101659.50;;;2.72;100.00
11190;BME280;5651;50.926;4.718;2022-12-05T05:37:44;101661.25;;;2.73;100.00
11190;BME280;5651;50.926;4.718;2022-12-05T05:40:11;101660.44;;;2.74;100.00
11190;BME280;5651;50.926;4.718;2022-12-05T05:42:45;101653.59;;;2.74;100.00
11190;BME280;5651;50.926;4.718;2022-12-05T05:45:13;101667.41;;;2.76;100.00
11190;BME280;5651;50.926;4.718;2022-12-05T05:47:40;101662.34;;;2.78;100.00
11190;BME280;5651;50.926;4.718;2022-12-05T05:50:07;101659.75;;;2.78;100.00
11190;BME280;5651;50.926;4.718;2022-12-05T05:52:33;101659.75;;;2.78;100.00
11190;BME280;5651;50.926;4.718;2022-12-05T05:55:00;101661.53;;;2.79;100.00
11190;BME280;5651;50.926;4.718;2022-12-05T05:57:25;101657.28;;;2.81;100.00
11190;BME280;5651;50.926;4.718;2022-12-05T05:59:51;101664.25;;;2.83;100.00
11190;BME280;5651;50.926;4.718;2022-12-05T06:02:17;101660.75;;;2.81;100.00
11190;BME280;5651;50.926;4.718;2022-12-05T06:04:42;101661.75;;;2.85;100.00
11190;BME280;5651;50.926;4.718;2022-12-05T06:07:08;101662.63;;;2.85;100.00
11190;BME280;5651;50.926;4.718;2022-12-05T06:09:34;101663.56;;;2.88;100.00
11190;BME280;5651;50.926;4.718;2022-12-05T06:11:59;101665.34;;;2.89;100.00
11190;BME280;5651;50.926;4.718;2022-12-05T06:14:25;101671.44;;;2.91;100.00
11190;BME280;5651;50.926;4.718;2022-12-05T06:16:51;101672.44;;;2.94;100.00
11190;BME280;5651;50.926;4.718;2022-12-05T06:19:16;101681.84;;;2.94;100.00
11190;BME280;5651;50.926;4.718;2022-12-05T06:21:42;101680.22;;;2.96;100.00
11190;BME280;5651;50.926;4.718;2022-12-05T06:24:08;101671.44;;;2.91;100.00
11190;BME280;5651;50.926;4.718;2022-12-05T06:26:34;101667.09;;;2.90;100.00
11190;BME280;5651;50.926;4.718;2022-12-05T06:28:59;101673.16;;;2.92;100.00
11190;BME280;5651;50.926;4.718;2022-12-05T06:31:25;101669.88;;;2.94;100.00
11190;BME280;5651;50.926;4.718;2022-12-05T06:33:53;101675.81;;;2.93;100.00
11190;BME280;5651;50.926;4.718;2022-12-05T06:36:20;101678.44;;;2.95;100.00
11190;BME280;5651;50.926;4.718;2022-12-05T06:38:47;101675.00;;;2.94;100.00
11190;BME280;5651;50.926;4.718;2022-12-05T06:41:14;101681.97;;;2.97;100.00
11190;BME280;5651;50.926;4.718;2022-12-05T06:43:42;101687.13;;;2.97;100.00
11190;BME280;5651;50.926;4.718;2022-12-05T06:46:09;101688.94;;;2.99;100.00
11190;BME280;5651;50.926;4.718;2022-12-05T06:48:36;101682.06;;;3.00;100.00
11190;BME280;5651;50.926;4.718;2022-12-05T06:51:02;101690.75;;;3.02;100.00
11190;BME280;5651;50.926;4.718;2022-12-05T06:53:28;101685.59;;;3.02;100.00
11190;BME280;5651;50.926;4.718;2022-12-05T06:58:21;101692.38;;;3.00;100.00
11190;BME280;5651;50.926;4.718;2022-12-05T07:00:46;101700.09;;;3.00;100.00
11190;BME280;5651;50.926;4.718;2022-12-05T07:03:31;101698.41;;;3.00;100.00
11190;BME280;5651;50.926;4.718;2022-12-05T07:05:59;101709.63;;;3.03;100.00
11190;BME280;5651;50.926;4.718;2022-12-05T07:08:25;101708.81;;;3.04;100.00
11190;BME280;5651;50.926;4.718;2022-12-05T07:10:51;101705.44;;;3.05;100.00
11190;BME280;5651;50.926;4.718;2022-12-05T07:13:18;101713.22;;;3.06;100.00
11190;BME280;5651;50.926;4.718;2022-12-05T07:15:47;101707.25;;;3.07;100.00
11190;BME280;5651;50.926;4.718;2022-12-05T07:18:14;101711.59;;;3.08;100.00
11190;BME280;5651;50.926;4.718;2022-12-05T07:20:40;101722.78;;;3.09;100.00
11190;BME280;5651;50.926;4.718;2022-12-05T07:23:06;101727.94;;;3.09;100.00
11190;BME280;5651;50.926;4.718;2022-12-05T07:25:31;101724.50;;;3.10;100.00
11190;BME280;5651;50.926;4.718;2022-12-05T07:27:57;101733.19;;;3.12;100.00
11190;BME280;5651;50.926;4.718;2022-12-05T07:30:23;101728.03;;;3.12;100.00
11190;BME280;5651;50.926;4.718;2022-12-05T07:32:48;101728.03;;;3.12;100.00
11190;BME280;5651;50.926;4.718;2022-12-05T07:35:14;101730.63;;;3.12;100.00
11190;BME280;5651;50.926;4.718;2022-12-05T07:37:40;101727.84;;;3.07;100.00
11190;BME280;5651;50.926;4.718;2022-12-05T07:40:06;101723.59;;;3.08;100.00
11190;BME280;5651;50.926;4.718;2022-12-05T07:42:31;101724.47;;;3.08;100.00
11190;BME280;5651;50.926;4.718;2022-12-05T07:44:57;101731.38;;;3.09;100.00
11190;BME280;5651;50.926;4.718;2022-12-05T07:47:23;101727.97;;;3.10;100.00
11190;BME280;5651;50.926;4.718;2022-12-05T07:49:48;101734.09;;;3.12;100.00
11190;BME280;5651;50.926;4.718;2022-12-05T07:52:14;101736.66;;;3.12;100.00
11190;BME280;5651;50.926;4.718;2022-12-05T07:54:40;101738.34;;;3.12;100.00
11190;BME280;5651;50.926;4.718;2022-12-05T07:57:05;101747.88;;;3.14;100.00
11190;BME280;5651;50.926;4.718;2022-12-05T07:59:31;101747.06;;;3.15;100.00
11190;BME280;5651;50.926;4.718;2022-12-05T08:01:57;101746.19;;;3.15;100.00
11190;BME280;5651;50.926;4.718;2022-12-05T08:04:22;101751.41;;;3.16;100.00
11190;BME280;5651;50.926;4.718;2022-12-05T08:06:48;101757.44;;;3.17;100.00
11190;BME280;5651;50.926;4.718;2022-12-05T08:09:14;101755.78;;;3.19;100.00
11190;BME280;5651;50.926;4.718;2022-12-05T08:11:39;101757.56;;;3.20;100.00
11190;BME280;5651;50.926;4.718;2022-12-05T08:14:06;101760.19;;;3.22;100.00
11190;BME280;5651;50.926;4.718;2022-12-05T08:16:32;101758.44;;;3.21;100.00
11190;BME280;5651;50.926;4.718;2022-12-05T08:19:00;101762.84;;;3.23;100.00
11190;BME280;5651;50.926;4.718;2022-12-05T08:21:27;101768.91;;;3.25;100.00
11190;BME280;5651;50.926;4.718;2022-12-05T08:23:52;101762.91;;;3.25;100.00
11190;BME280;5651;50.926;4.718;2022-12-05T08:28:51;101768.09;;;3.26;100.00
11190;BME280;5651;50.926;4.718;2022-12-05T08:31:18;101771.56;;;3.27;100.00
11190;BME280;5651;50.926;4.718;2022-12-05T08:33:44;101777.63;;;3.29;100.00
11190;BME280;5651;50.926;4.718;2022-12-05T08:36:13;101770.88;;;3.31;100.00
11190;BME280;5651;50.926;4.718;2022-12-05T08:38:40;101781.16;;;3.31;100.00
11190;BME280;5651;50.926;4.718;2022-12-05T08:41:15;101783.88;;;3.34;100.00
11190;BME280;5651;50.926;4.718;2022-12-05T08:43:41;101787.31;;;3.35;100.00
11190;BME280;5651;50.926;4.718;2022-12-05T08:46:07;101789.09;;;3.36;100.00
11190;BME280;5651;50.926;4.718;2022-12-05T08:48:34;101790.03;;;3.38;100.00
11190;BME280;5651;50.926;4.718;2022-12-05T08:51:05;101802.16;;;3.40;100.00
11190;BME280;5651;50.926;4.718;2022-12-05T08:53:32;101802.16;;;3.40;100.00
11190;BME280;5651;50.926;4.718;2022-12-05T08:56:03;101796.19;;;3.41;100.00
11190;BME280;5651;50.926;4.718;2022-12-05T08:58:29;101802.41;;;3.46;100.00
11190;BME280;5651;50.926;4.718;2022-12-05T09:01:05;101800.75;;;3.48;100.00
11190;BME280;5651;50.926;4.718;2022-12-05T09:03:31;101797.13;;;3.43;100.00
11190;BME280;5651;50.926;4.718;2022-12-05T09:06:18;101798.13;;;3.47;100.00
11190;BME280;5651;50.926;4.718;2022-12-05T09:08:44;101798.28;;;3.52;100.00
11190;BME280;5651;50.926;4.718;2022-12-05T09:11:20;101808.72;;;3.55;100.00
11190;BME280;5651;50.926;4.718;2022-12-05T09:13:46;101806.28;;;3.58;100.00
11190;BME280;5651;50.926;4.718;2022-12-05T09:16:16;101808.03;;;3.59;100.00
11190;BME280;5651;50.926;4.718;2022-12-05T09:18:43;101805.44;;;3.59;100.00
11190;BME280;5651;50.926;4.718;2022-12-05T09:21:16;101809.78;;;3.60;100.00
11190;BME280;5651;50.926;4.718;2022-12-05T09:23:42;101813.19;;;3.59;100.00
11190;BME280;5651;50.926;4.718;2022-12-05T09:26:11;101813.31;;;3.62;100.00
11190;BME280;5651;50.926;4.718;2022-12-05T09:28:38;101816.03;;;3.65;100.00
11190;BME280;5651;50.926;4.718;2022-12-05T09:31:09;101821.28;;;3.68;100.00
11190;BME280;5651;50.926;4.718;2022-12-05T09:33:36;101812.88;;;3.72;100.00
11190;BME280;5651;50.926;4.718;2022-12-05T09:36:06;101815.50;;;3.74;100.00
11190;BME280;5651;50.926;4.718;2022-12-05T09:38:32;101820.69;;;3.75;100.00
11190;BME280;5651;50.926;4.718;2022-12-05T09:44:23;101825.09;;;3.78;100.00
11190;BME280;5651;50.926;4.718;2022-12-05T09:46:57;101827.84;;;3.83;100.00
11190;BME280;5651;50.926;4.718;2022-12-05T09:49:25;101823.47;;;3.80;100.00
11190;BME280;5651;50.926;4.718;2022-12-05T09:51:52;101829.69;;;3.85;100.00
11190;BME280;5651;50.926;4.718;2022-12-05T09:54:20;101827.28;;;3.90;100.00
11190;BME280;5651;50.926;4.718;2022-12-05T09:56:48;101822.97;;;3.89;100.00
11190;BME280;5651;50.926;4.718;2022-12-05T09:59:15;101832.56;;;3.93;100.00
11190;BME280;5651;50.926;4.718;2022-12-05T10:02:00;101827.34;;;3.91;100.00
11190;BME280;5651;50.926;4.718;2022-12-05T10:17:37;101831.97;;;4.00;100.00
11190;BME280;5651;50.926;4.718;2022-12-05T10:20:10;101821.66;;;4.00;100.00
11190;BME280;5651;50.926;4.718;2022-12-05T10:22:53;101821.78;;;4.03;100.00
11190;BME280;5651;50.926;4.718;2022-12-05T10:25:22;101817.44;;;4.02;100.00
11190;BME280;5651;50.926;4.718;2022-12-05T10:27:55;101829.44;;;4.02;100.00
11190;BME280;5651;50.926;4.718;2022-12-05T10:30:24;101826.09;;;4.04;100.00
11190;BME280;5651;50.926;4.718;2022-12-05T10:32:55;101823.53;;;4.04;100.00
11190;BME280;5651;50.926;4.718;2022-12-05T10:35:26;101827.00;;;4.05;100.00
11190;BME280;5651;50.926;4.718;2022-12-05T10:38:10;101833.97;;;4.07;100.00
11190;BME280;5651;50.926;4.718;2022-12-05T10:40:39;101822.84;;;4.08;100.00
11190;BME280;5651;50.926;4.718;2022-12-05T10:43:07;101831.44;;;4.09;100.00
11190;BME280;5651;50.926;4.718;2022-12-05T10:45:40;101828.81;;;4.07;100.00
11190;BME280;5651;50.926;4.718;2022-12-05T10:48:10;101825.47;;;4.10;100.00
11190;BME280;5651;50.926;4.718;2022-12-05T10:50:37;101830.53;;;4.07;100.00
11190;BME280;5651;50.926;4.718;2022-12-05T10:53:05;101830.34;;;4.02;100.00
11190;BME280;5651;50.926;4.718;2022-12-05T10:55:36;101831.38;;;4.07;100.00
11190;BME280;5651;50.926;4.718;2022-12-05T10:58:11;101833.16;;;4.08;100.00
11190;BME280;5651;50.926;4.718;2022-12-05T11:00:37;101826.22;;;4.07;100.00
11190;BME280;5651;50.926;4.718;2022-12-05T11:03:29;101833.75;;;4.01;100.00
11190;BME280;5651;50.926;4.718;2022-12-05T11:06:14;101830.56;;;4.08;100.00
11190;BME280;5651;50.926;4.718;2022-12-05T11:08:40;101834.00;;;4.09;100.00
11190;BME280;5651;50.926;4.718;2022-12-05T11:11:16;101830.69;;;4.11;100.00
11190;BME280;5651;50.926;4.718;2022-12-05T11:13:52;101827.28;;;4.12;100.00
11190;BME280;5651;50.926;4.718;2022-12-05T11:16:28;101827.09;;;4.08;100.00
11190;BME280;5651;50.926;4.718;2022-12-05T11:18:54;101831.44;;;4.09;100.00
11190;BME280;5651;50.926;4.718;2022-12-05T11:21:20;101833.19;;;4.10;100.00
11190;BME280;5651;50.926;4.718;2022-12-05T11:23:46;101828.22;;;4.15;100.00
11190;BME280;5651;50.926;4.718;2022-12-05T11:26:34;101828.84;;;4.09;100.00
11190;BME280;5651;50.926;4.718;2022-12-05T11:29:01;101829.00;;;4.12;100.00
11190;BME280;5651;50.926;4.718;2022-12-05T11:31:28;101828.84;;;4.09;100.00
11190;BME280;5651;50.926;4.718;2022-12-05T11:34:18;101824.69;;;4.12;100.00
11190;BME280;5651;50.926;4.718;2022-12-05T11:36:52;101827.28;;;4.12;100.00
11190;BME280;5651;50.926;4.718;2022-12-05T11:39:19;101822.84;;;4.08;100.00
11190;BME280;5651;50.926;4.718;2022-12-05T11:55:46;101818.22;;;4.22;100.00
11190;BME280;5651;50.926;4.718;2022-12-05T12:07:03;101820.38;;;4.34;100.00
11190;BME280;5651;50.926;4.718;2022-12-05T12:21:00;101826.44;;;4.36;100.00
11190;BME280;5651;50.926;4.718;2022-12-05T12:26:12;101824.34;;;4.26;100.00
11190;BME280;5651;50.926;4.718;2022-12-05T12:28:47;101826.97;;;4.27;100.00
11190;BME280;5651;50.926;4.718;2022-12-05T12:34:11;101825.41;;;4.31;100.00
11190;BME280;5651;50.926;4.718;2022-12-05T12:36:52;101829.50;;;4.26;100.00
11190;BME280;5651;50.926;4.718;2022-12-05T12:39:28;101827.16;;;4.32;100.00
11190;BME280;5651;50.926;4.718;2022-12-05T12:45:05;101824.66;;;4.35;100.00
11190;BME280;5651;50.926;4.718;2022-12-05T12:47:44;101825.53;;;4.34;100.00
11190;BME280;5651;50.926;4.718;2022-12-05T12:50:24;101816.06;;;4.35;100.00
11190;BME280;5651;50.926;4.718;2022-12-05T12:55:42;101817.81;;;4.36;100.00
11190;BME280;5651;50.926;4.718;2022-12-05T13:03:51;101807.81;;;4.21;100.00
11190;BME280;5651;50.926;4.718;2022-12-05T13:06:27;101808.09;;;4.28;100.00
11190;BME280;5651;50.926;4.718;2022-12-05T13:08:57;101807.16;;;4.26;100.00
11190;BME280;5651;50.926;4.718;2022-12-05T13:11:27;101801.13;;;4.26;100.00
11190;BME280;5651;50.926;4.718;2022-12-05T13:13:59;101795.31;;;4.32;100.00
11190;BME280;5651;50.926;4.718;2022-12-05T13:16:32;101803.28;;;4.38;100.00
11190;BME280;5651;50.926;4.718;2022-12-05T13:19:00;101805.78;;;4.36;100.00
11190;BME280;5651;50.926;4.718;2022-12-05T13:21:27;101805.03;;;4.39;100.00
11190;BME280;5651;50.926;4.718;2022-12-05T13:23:56;101807.34;;;4.31;100.00
11190;BME280;5651;50.926;4.718;2022-12-05T13:26:29;101812.72;;;4.37;100.00
11190;BME280;5651;50.926;4.718;2022-12-05T13:29:02;101805.03;;;4.39;100.00
11190;BME280;5651;50.926;4.718;2022-12-05T13:31:40;101804.28;;;4.41;100.00
11190;BME280;5651;50.926;4.718;2022-12-05T13:36:51;101818.16;;;4.45;100.00
11190;BME280;5651;50.926;4.718;2022-12-05T13:39:36;101820.50;;;4.39;100.00
11190;BME280;5651;50.926;4.718;2022-12-05T13:42:24;101821.19;;;4.33;100.00
11190;BME280;5651;50.926;4.718;2022-12-05T13:48:22;101824.56;;;4.32;100.00
11190;BME280;5651;50.926;4.718;2022-12-05T13:53:36;101829.00;;;4.36;100.00
11190;BME280;5651;50.926;4.718;2022-12-05T13:58:57;101819.63;;;4.38;100.00
11190;BME280;5651;50.926;4.718;2022-12-05T14:17:23;101823.00;;;4.60;100.00
11190;BME280;5651;50.926;4.718;2022-12-05T14:28:37;101828.06;;;4.57;100.00
11190;BME280;5651;50.926;4.718;2022-12-05T14:33:36;101833.97;;;4.54;100.00
11190;BME280;5651;50.926;4.718;2022-12-05T14:36:11;101832.16;;;4.52;100.00
11190;BME280;5651;50.926;4.718;2022-12-05T14:38:40;101833.28;;;4.58;100.00
11190;BME280;5651;50.926;4.718;2022-12-05T14:41:23;101829.09;;;4.62;100.00
11190;BME280;5651;50.926;4.718;2022-12-05T14:43:55;101833.78;;;4.50;100.00
11190;BME280;5651;50.926;4.718;2022-12-05T14:46:29;101838.03;;;4.48;100.00
11190;BME280;5651;50.926;4.718;2022-12-05T14:48:56;101842.25;;;4.46;100.00
11190;BME280;5651;50.926;4.718;2022-12-05T14:53:54;101837.09;;;4.46;100.00
11190;BME280;5651;50.926;4.718;2022-12-05T14:56:25;101843.09;;;4.44;100.00
11190;BME280;5651;50.926;4.718;2022-12-05T14:59:01;101838.66;;;4.40;100.00
11190;BME280;5651;50.926;4.718;2022-12-05T15:01:51;101837.75;;;4.40;100.00
11190;BME280;5651;50.926;4.718;2022-12-05T15:04:30;101835.97;;;4.39;100.00
11190;BME280;5651;50.926;4.718;2022-12-05T15:07:01;101835.97;;;4.39;100.00
11190;BME280;5651;50.926;4.718;2022-12-05T15:12:22;101848.84;;;4.37;100.00
11190;BME280;5651;50.926;4.718;2022-12-05T15:15:05;101845.31;;;4.35;100.00
11190;BME280;5651;50.926;4.718;2022-12-05T15:17:44;101851.38;;;4.36;100.00
11190;BME280;5651;50.926;4.718;2022-12-05T15:20:51;101854.59;;;4.30;100.00
11190;BME280;5651;50.926;4.718;2022-12-05T15:31:57;101858.13;;;4.32;100.00
11190;BME280;5651;50.926;4.718;2022-12-05T15:37:22;101858.72;;;4.25;100.00
11190;BME280;5651;50.926;4.718;2022-12-05T15:42:31;101868.13;;;4.24;100.00
11190;BME280;5651;50.926;4.718;2022-12-05T15:47:34;101869.94;;;4.27;100.00
11190;BME280;5651;50.926;4.718;2022-12-05T15:50:00;101866.56;;;4.28;100.00
11190;BME280;5651;50.926;4.718;2022-12-05T15:52:46;101867.38;;;4.27;100.00
11190;BME280;5651;50.926;4.718;2022-12-05T15:55:22;101869.13;;;4.28;100.00
11190;BME280;5651;50.926;4.718;2022-12-05T16:00:24;101873.53;;;4.31;100.00
11190;BME280;5651;50.926;4.718;2022-12-05T16:03:04;101867.94;;;4.42;100.00